createdAt,value
2022-11-22T00:00:18.355Z,28.85
2022-11-22T00:02:45.751Z,19.00
2022-11-22T00:05:13.067Z,25.30
2022-11-22T00:07:40.027Z,37.05
2022-11-22T00:10:08.813Z,29.38
2022-11-22T00:12:35.659Z,18.45
2022-11-22T00:15:02.659Z,18.27
2022-11-22T00:17:29.377Z,23.55
2022-11-22T00:19:56.121Z,18.63
2022-11-22T00:22:22.992Z,20.83
2022-11-22T00:24:51.619Z,18.63
2022-11-22T00:27:19.012Z,18.23
2022-11-22T00:29:45.805Z,16.17
2022-11-22T00:32:12.622Z,27.70
2022-11-22T00:34:39.368Z,47.13
2022-11-22T00:37:06.158Z,33.13
2022-11-22T00:39:32.978Z,33.03
2022-11-22T00:42:00.133Z,31.77
2022-11-22T00:44:27.191Z,22.73
2022-11-22T00:46:54.116Z,18.45
2022-11-22T00:49:20.874Z,17.90
2022-11-22T00:51:47.542Z,16.75
2022-11-22T00:54:14.308Z,16.33
2022-11-22T00:56:41.042Z,13.85
2022-11-22T00:59:07.802Z,18.63
2022-11-22T01:01:34.663Z,13.82
2022-11-22T01:04:01.541Z,16.05
2022-11-22T01:06:28.309Z,15.80
2022-11-22T01:08:55.166Z,19.63
2022-11-22T01:11:22.234Z,16.20
2022-11-22T01:13:48.923Z,13.00
2022-11-22T01:16:16.346Z,16.08
2022-11-22T01:18:43.578Z,14.20
2022-11-22T01:21:10.534Z,18.55
2022-11-22T01:23:37.598Z,20.23
2022-11-22T01:26:08.811Z,15.85
2022-11-22T01:28:36.127Z,11.32
2022-11-22T01:31:03.306Z,11.50
2022-11-22T01:33:30.026Z,10.52
2022-11-22T01:35:58.260Z,13.57
2022-11-22T01:38:25.486Z,15.15
2022-11-22T01:40:53.328Z,10.70
2022-11-22T01:43:23.323Z,11.82
2022-11-22T01:45:58.100Z,12.05
2022-11-22T01:48:58.686Z,9.50
2022-11-22T01:51:38.517Z,10.65
2022-11-22T01:54:09.741Z,12.32
2022-11-22T01:56:38.234Z,12.27
2022-11-22T01:59:10.047Z,9.23
2022-11-22T02:01:37.095Z,15.27
2022-11-22T02:04:07.011Z,9.15
2022-11-22T02:07:08.917Z,15.32
2022-11-22T02:09:37.905Z,8.70
2022-11-22T02:12:06.417Z,10.50
2022-11-22T02:14:34.942Z,14.45
2022-11-22T02:17:02.172Z,13.73
2022-11-22T02:19:34.429Z,17.23
2022-11-22T02:22:24.398Z,13.95
2022-11-22T02:25:04.327Z,13.90
2022-11-22T02:27:31.224Z,8.23
2022-11-22T02:29:57.954Z,9.18
2022-11-22T02:32:24.878Z,10.93
2022-11-22T02:34:51.977Z,13.95
2022-11-22T02:37:25.978Z,9.05
2022-11-22T02:39:58.647Z,18.20
2022-11-22T02:42:26.866Z,10.18
2022-11-22T02:44:53.607Z,11.25
2022-11-22T02:47:20.497Z,11.75
2022-11-22T02:49:47.293Z,10.50
2022-11-22T02:52:18.455Z,11.60
2022-11-22T02:54:46.282Z,12.85
2022-11-22T02:57:13.421Z,15.68
2022-11-22T02:59:40.189Z,13.23
2022-11-22T03:02:06.990Z,10.75
2022-11-22T03:04:33.743Z,13.57
2022-11-22T03:07:02.170Z,13.50
2022-11-22T03:09:29.476Z,11.65
2022-11-22T03:11:56.788Z,10.85
2022-11-22T03:14:23.943Z,11.60
2022-11-22T03:16:51.013Z,11.00
2022-11-22T03:19:17.698Z,11.15
2022-11-22T03:21:44.480Z,12.73
2022-11-22T03:24:11.651Z,15.95
2022-11-22T03:26:38.837Z,11.88
2022-11-22T03:29:05.689Z,13.07
2022-11-22T03:31:32.512Z,14.23
2022-11-22T03:33:59.229Z,13.85
2022-11-22T03:36:25.956Z,12.48
2022-11-22T03:38:52.688Z,15.03
2022-11-22T03:41:19.386Z,9.83
2022-11-22T03:43:46.146Z,10.63
2022-11-22T03:46:17.363Z,11.87
2022-11-22T03:48:44.108Z,11.30
2022-11-22T03:51:10.918Z,12.17
2022-11-22T03:53:38.433Z,10.30
2022-11-22T03:56:06.118Z,10.90
2022-11-22T03:58:33.490Z,12.67
2022-11-22T04:01:00.712Z,13.87
2022-11-22T04:03:27.509Z,8.80
2022-11-22T04:05:54.303Z,9.13
2022-11-22T04:08:21.021Z,8.68
2022-11-22T04:10:51.949Z,10.20
2022-11-22T04:13:19.082Z,12.83
2022-11-22T04:15:45.819Z,10.68
2022-11-22T04:18:14.133Z,9.57
2022-11-22T04:21:00.110Z,12.00
2022-11-22T04:23:33.516Z,8.80
2022-11-22T04:26:00.900Z,8.68
2022-11-22T04:28:53.620Z,11.05
2022-11-22T04:31:33.209Z,16.23
2022-11-22T04:33:59.900Z,8.77
2022-11-22T04:36:26.662Z,9.50
2022-11-22T04:38:53.419Z,11.18
2022-11-22T04:41:20.134Z,9.35
2022-11-22T04:44:05.572Z,9.98
2022-11-22T04:46:32.331Z,8.10
2022-11-22T04:48:59.017Z,8.75
2022-11-22T04:51:44.162Z,8.80
2022-11-22T04:54:10.948Z,12.55
2022-11-22T04:56:37.676Z,14.48
2022-11-22T04:59:04.553Z,9.83
2022-11-22T05:01:31.399Z,7.63
2022-11-22T05:03:58.143Z,7.97
2022-11-22T05:06:24.915Z,8.70
2022-11-22T05:08:51.613Z,8.73
2022-11-22T05:11:18.469Z,9.57
2022-11-22T05:13:45.298Z,11.15
2022-11-22T05:16:14.958Z,10.20
2022-11-22T05:18:42.538Z,8.85
2022-11-22T05:21:14.334Z,7.85
2022-11-22T05:23:56.515Z,7.80
2022-11-22T05:26:33.554Z,9.80
2022-11-22T05:29:07.959Z,8.45
2022-11-22T05:31:36.512Z,11.85
2022-11-22T05:34:03.916Z,9.55
2022-11-22T05:36:33.102Z,8.68
2022-11-22T05:39:00.239Z,8.23
2022-11-22T05:41:27.441Z,9.77
2022-11-22T05:43:56.415Z,9.55
2022-11-22T05:46:26.490Z,7.10
2022-11-22T05:48:54.873Z,11.27
2022-11-22T05:51:25.260Z,9.98
2022-11-22T05:53:54.744Z,10.35
2022-11-22T05:56:23.379Z,13.85
2022-11-22T05:58:50.717Z,15.05
2022-11-22T06:01:20.134Z,16.00
2022-11-22T06:03:47.868Z,18.75
2022-11-22T06:06:15.528Z,17.65
2022-11-22T06:08:46.758Z,29.67
2022-11-22T06:11:15.718Z,20.85
2022-11-22T06:13:46.597Z,22.90
2022-11-22T06:16:14.343Z,21.75
2022-11-22T06:18:41.429Z,21.92
2022-11-22T06:21:14.703Z,17.70
2022-11-22T06:23:42.012Z,16.90
2022-11-22T06:26:14.601Z,16.75
2022-11-22T06:28:41.518Z,34.28
2022-11-22T06:31:17.747Z,15.65
2022-11-22T06:33:44.964Z,18.75
2022-11-22T06:36:14.572Z,15.55
2022-11-22T06:38:43.031Z,32.35
2022-11-22T06:41:16.190Z,26.60
2022-11-22T06:43:48.780Z,37.22
2022-11-22T06:46:18.327Z,32.42
2022-11-22T06:48:45.826Z,29.33
2022-11-22T06:51:24.595Z,27.73
2022-11-22T06:53:52.171Z,24.48
2022-11-22T06:56:21.730Z,22.05
2022-11-22T06:58:49.975Z,23.80
2022-11-22T07:01:20.787Z,17.42
2022-11-22T07:03:48.170Z,18.95
2022-11-22T07:06:17.285Z,20.73
2022-11-22T07:08:44.660Z,22.13
2022-11-22T07:11:14.064Z,25.55
2022-11-22T07:13:41.542Z,18.27
2022-11-22T07:16:10.329Z,17.55
2022-11-22T07:18:37.070Z,21.88
2022-11-22T07:21:12.202Z,20.40
2022-11-22T07:23:44.069Z,21.42
2022-11-22T07:26:12.133Z,20.63
2022-11-22T07:28:41.926Z,17.35
2022-11-22T07:31:10.685Z,26.48
2022-11-22T07:33:38.204Z,23.08
2022-11-22T07:36:16.632Z,25.75
2022-11-22T07:38:43.613Z,35.78
2022-11-22T07:41:10.746Z,22.05
2022-11-22T07:43:37.873Z,23.95
2022-11-22T07:46:08.157Z,26.05
2022-11-22T07:48:35.068Z,21.08
2022-11-22T07:51:06.858Z,19.80
2022-11-22T07:53:34.958Z,16.80
2022-11-22T07:56:05.825Z,18.55
2022-11-22T07:58:34.018Z,18.35
2022-11-22T08:01:12.372Z,18.17
2022-11-22T08:03:39.345Z,18.98
2022-11-22T08:06:12.311Z,19.60
2022-11-22T08:08:39.510Z,19.35
2022-11-22T08:11:07.480Z,22.85
2022-11-22T08:13:35.222Z,32.83
2022-11-22T08:16:07.529Z,29.05
2022-11-22T08:18:36.234Z,27.20
2022-11-22T08:21:08.392Z,20.98
2022-11-22T08:23:35.686Z,16.17
2022-11-22T08:26:02.901Z,17.95
2022-11-22T08:28:29.800Z,22.90
2022-11-22T08:31:12.267Z,18.45
2022-11-22T08:33:39.468Z,18.00
2022-11-22T08:36:07.201Z,19.98
2022-11-22T08:38:34.372Z,21.98
2022-11-22T08:41:01.153Z,26.70
2022-11-22T08:43:27.926Z,20.50
2022-11-22T08:45:57.335Z,28.95
2022-11-22T08:48:28.838Z,20.15
2022-11-22T08:50:58.309Z,20.55
2022-11-22T08:53:25.916Z,21.08
2022-11-22T08:55:54.701Z,86.07
2022-11-22T08:58:22.531Z,50.90
2022-11-22T09:00:49.262Z,23.00
2022-11-22T09:03:16.435Z,16.97
2022-11-22T09:08:34.380Z,13.25
2022-11-22T09:11:10.485Z,15.50
2022-11-22T09:13:37.461Z,14.03
2022-11-22T09:16:06.762Z,22.17
2022-11-22T09:18:34.146Z,23.43
2022-11-22T09:21:02.392Z,20.27
2022-11-22T09:23:29.789Z,19.00
2022-11-22T09:26:01.263Z,19.37
2022-11-22T09:28:28.645Z,20.27
2022-11-22T09:31:10.539Z,16.40
2022-11-22T09:33:39.075Z,21.87
2022-11-22T09:36:08.554Z,19.60
2022-11-22T09:38:36.855Z,19.77
2022-11-22T09:41:30.604Z,25.53
2022-11-22T09:44:25.347Z,20.13
2022-11-22T09:47:12.213Z,16.63
2022-11-22T09:49:58.748Z,19.83
2022-11-22T09:52:32.427Z,16.70
2022-11-22T09:55:28.402Z,20.53
2022-11-22T09:58:08.944Z,12.90
2022-11-22T10:00:36.061Z,15.50
2022-11-22T10:03:09.969Z,15.13
2022-11-22T10:06:06.868Z,10.83
2022-11-22T10:08:36.444Z,14.03
2022-11-22T10:11:12.089Z,13.57
2022-11-22T10:13:50.328Z,9.30
2022-11-22T10:16:20.798Z,11.40
2022-11-22T10:19:12.536Z,9.77
2022-11-22T10:21:39.294Z,7.43
2022-11-22T10:24:06.565Z,12.00
2022-11-22T10:26:34.474Z,9.07
2022-11-22T10:29:29.752Z,19.03
2022-11-22T10:32:31.895Z,7.90
2022-11-22T10:35:18.358Z,8.87
2022-11-22T10:37:59.690Z,12.60
2022-11-22T10:40:38.639Z,6.67
2022-11-22T10:43:46.379Z,7.63
2022-11-22T10:46:31.485Z,12.90
2022-11-22T10:49:27.710Z,14.63
2022-11-22T10:52:09.673Z,7.83
2022-11-22T10:55:13.947Z,6.23
2022-11-22T10:57:50.298Z,10.43
2022-11-22T11:00:25.066Z,10.70
2022-11-22T11:02:54.662Z,15.30
2022-11-22T11:05:29.358Z,12.43
2022-11-22T11:08:04.063Z,8.63
2022-11-22T11:10:43.449Z,17.87
2022-11-22T11:13:30.426Z,13.43
2022-11-22T11:15:59.612Z,5.93
2022-11-22T11:18:41.452Z,9.10
2022-11-22T11:21:11.548Z,18.00
2022-11-22T11:23:38.271Z,14.60
2022-11-22T11:26:25.324Z,12.70
2022-11-22T11:29:12.034Z,9.13
2022-11-22T11:31:46.746Z,12.23
2022-11-22T11:34:23.522Z,11.10
2022-11-22T11:36:51.466Z,6.20
2022-11-22T11:39:23.366Z,9.97
2022-11-22T11:41:50.867Z,7.33
2022-11-22T11:44:33.876Z,6.97
2022-11-22T11:47:01.089Z,4.90
2022-11-22T11:49:30.588Z,6.40
2022-11-22T11:52:23.320Z,4.87
2022-11-22T11:54:54.188Z,11.07
2022-11-22T11:57:51.499Z,11.67
2022-11-22T12:00:26.854Z,11.30
2022-11-22T12:02:59.740Z,7.33
2022-11-22T12:05:31.967Z,11.73
2022-11-22T12:08:00.309Z,10.73
2022-11-22T12:10:49.801Z,6.67
2022-11-22T12:14:12.395Z,5.33
2022-11-22T12:16:34.880Z,7.37
2022-11-22T12:19:27.660Z,7.53
2022-11-22T12:25:32.605Z,6.93
2022-11-22T12:28:11.930Z,12.70
2022-11-22T12:30:42.315Z,9.53
2022-11-22T12:33:24.693Z,8.63
2022-11-22T12:35:54.891Z,7.20
2022-11-22T12:38:30.151Z,9.70
2022-11-22T12:41:01.906Z,7.90
2022-11-22T12:43:58.407Z,14.43
2022-11-22T12:46:39.893Z,4.40
2022-11-22T12:48:23.024Z,4.57
2022-11-22T12:49:11.784Z,4.77
2022-11-22T12:52:11.411Z,5.07
2022-11-22T12:55:07.531Z,4.93
2022-11-22T12:57:56.739Z,7.87
2022-11-22T13:00:27.062Z,4.43
2022-11-22T13:03:01.496Z,4.47
2022-11-22T13:05:37.483Z,6.23
2022-11-22T13:08:23.246Z,7.93
2022-11-22T13:11:11.055Z,15.63
2022-11-22T13:13:45.290Z,12.13
2022-11-22T13:16:13.142Z,15.97
2022-11-22T13:19:12.078Z,8.87
2022-11-22T13:22:02.420Z,9.57
2022-11-22T13:25:01.484Z,13.97
2022-11-22T13:27:39.130Z,6.67
2022-11-22T13:30:16.698Z,6.17
2022-11-22T13:32:43.502Z,22.97
2022-11-22T13:35:12.908Z,8.73
2022-11-22T13:37:43.406Z,5.17
2022-11-22T13:40:16.041Z,6.93
2022-11-22T13:42:43.035Z,7.67
2022-11-22T13:45:20.550Z,6.10
2022-11-22T13:47:47.790Z,11.40
2022-11-22T13:50:44.427Z,7.07
2022-11-22T13:53:31.394Z,8.40
2022-11-22T13:56:15.102Z,6.90
2022-11-22T13:58:51.085Z,3.10
2022-11-22T14:01:35.106Z,5.03
2022-11-22T14:04:16.965Z,3.00
2022-11-22T14:07:05.400Z,6.57
2022-11-22T14:09:50.970Z,6.43
2022-11-22T14:12:36.459Z,7.80
2022-11-22T14:15:25.821Z,7.20
2022-11-22T14:18:01.170Z,5.80
2022-11-22T14:21:00.325Z,4.57
2022-11-22T14:23:58.538Z,13.37
2022-11-22T14:26:28.511Z,7.00
2022-11-22T14:29:09.181Z,9.40
2022-11-22T14:31:36.813Z,12.63
2022-11-22T14:34:23.709Z,9.40
2022-11-22T14:37:15.373Z,11.77
2022-11-22T14:39:44.992Z,18.37
2022-11-22T14:42:36.872Z,19.53
2022-11-22T14:45:12.153Z,12.97
2022-11-22T14:47:53.033Z,10.27
2022-11-22T14:50:37.918Z,8.07
2022-11-22T14:53:18.662Z,10.90
2022-11-22T14:55:46.374Z,12.37
2022-11-22T14:58:20.029Z,8.27
2022-11-22T15:00:58.613Z,6.97
2022-11-22T15:03:43.386Z,6.50
2022-11-22T15:09:15.367Z,14.30
2022-11-22T15:09:18.788Z,5.53
2022-11-22T15:12:17.068Z,12.60
2022-11-22T15:57:45.579Z,7.93
2022-11-22T16:00:28.763Z,11.20
2022-11-22T16:03:06.786Z,17.13
2022-11-22T16:06:07.266Z,7.20
2022-11-22T16:08:29.333Z,7.50
2022-11-22T16:10:59.492Z,11.20
2022-11-22T16:13:28.950Z,9.37
2022-11-22T16:16:20.012Z,11.37
2022-11-22T16:18:48.400Z,7.80
2022-11-22T16:21:27.334Z,8.27
2022-11-22T16:24:18.243Z,5.87
2022-11-22T16:27:11.743Z,14.60
2022-11-22T16:29:38.809Z,14.00
2022-11-22T16:32:13.924Z,10.13
2022-11-22T16:34:44.277Z,19.50
2022-11-22T16:37:28.954Z,9.70
2022-11-22T16:39:58.319Z,14.03
2022-11-22T16:42:28.542Z,23.43
2022-11-22T16:45:00.938Z,12.33
2022-11-22T16:47:30.465Z,13.40
2022-11-22T16:49:57.538Z,8.03
2022-11-22T16:52:25.405Z,6.50
2022-11-22T16:54:52.233Z,12.40
2022-11-22T16:57:19.100Z,17.07
2022-11-22T16:59:46.008Z,6.87
2022-11-22T17:02:14.735Z,6.20
2022-11-22T17:04:41.916Z,12.15
2022-11-22T17:07:12.679Z,7.50
2022-11-22T17:09:39.597Z,11.23
2022-11-22T17:12:17.030Z,6.70
2022-11-22T17:14:44.366Z,11.23
2022-11-22T17:17:14.952Z,15.23
2022-11-22T17:19:56.988Z,12.73
2022-11-22T17:22:23.994Z,12.53
2022-11-22T17:24:50.755Z,10.93
2022-11-22T17:27:17.445Z,16.70
2022-11-22T17:29:51.605Z,14.50
2022-11-22T17:32:18.619Z,6.50
2022-11-22T17:34:45.423Z,8.07
2022-11-22T17:37:12.988Z,13.10
2022-11-22T17:39:40.381Z,12.00
2022-11-22T17:42:07.166Z,9.10
2022-11-22T17:44:34.198Z,8.87
2022-11-22T17:47:01.155Z,9.68
2022-11-22T17:49:28.747Z,8.77
2022-11-22T17:51:55.781Z,10.75
2022-11-22T17:54:22.568Z,8.00
2022-11-22T17:56:49.329Z,12.68
2022-11-22T17:59:16.108Z,13.00
2022-11-22T18:01:43.385Z,10.05
2022-11-22T18:04:10.485Z,16.67
2022-11-22T18:06:37.432Z,11.02
2022-11-22T18:09:04.306Z,9.45
2022-11-22T18:11:31.217Z,10.45
2022-11-22T18:13:58.012Z,11.55
2022-11-22T18:16:28.502Z,6.80
2022-11-22T18:18:57.515Z,7.28
2022-11-22T18:21:25.703Z,12.95
2022-11-22T18:23:52.819Z,10.18
2022-11-22T18:29:38.943Z,19.00
2022-11-22T18:31:53.924Z,35.15
2022-11-22T18:34:22.294Z,36.70
2022-11-22T18:36:55.279Z,17.63
2022-11-22T18:39:23.145Z,14.65
2022-11-22T18:41:49.989Z,17.20
2022-11-22T18:44:16.912Z,21.38
2022-11-22T18:46:44.131Z,18.17
2022-11-22T18:49:10.858Z,11.43
2022-11-22T18:51:37.576Z,53.60
2022-11-22T18:54:04.623Z,35.25
2022-11-22T18:56:31.643Z,41.20
2022-11-22T18:58:58.404Z,49.17
2022-11-22T19:01:26.331Z,48.78
2022-11-22T19:03:53.933Z,44.38
2022-11-22T19:06:20.678Z,41.13
2022-11-22T19:08:48.258Z,31.85
2022-11-22T19:11:16.198Z,42.03
2022-11-22T19:13:44.011Z,12.80
2022-11-22T19:16:14.347Z,11.00
2022-11-22T19:18:43.050Z,10.48
2022-11-22T19:21:16.178Z,7.47
2022-11-22T19:23:43.401Z,12.85
2022-11-22T19:26:14.158Z,13.43
2022-11-22T19:28:42.390Z,15.85
2022-11-22T19:31:19.264Z,14.07
2022-11-22T19:33:46.735Z,18.75
2022-11-22T19:36:15.991Z,17.38
2022-11-22T19:38:43.359Z,22.23
2022-11-22T19:41:16.830Z,20.38
2022-11-22T19:43:44.256Z,19.70
2022-11-22T19:46:11.386Z,28.83
2022-11-22T19:48:43.762Z,20.05
2022-11-22T19:51:15.350Z,21.02
2022-11-22T19:53:42.560Z,27.92
2022-11-22T19:56:14.878Z,24.90
2022-11-22T19:58:42.526Z,24.98
2022-11-22T20:01:14.342Z,19.85
2022-11-22T20:03:42.913Z,23.38
2022-11-22T20:06:12.353Z,26.02
2022-11-22T20:08:39.754Z,23.15
2022-11-22T20:11:12.645Z,28.15
2022-11-22T20:13:43.273Z,19.15
2022-11-22T20:16:11.972Z,21.90
2022-11-22T20:18:38.730Z,12.55
2022-11-22T20:21:06.955Z,15.02
2022-11-22T20:23:34.141Z,18.90
2022-11-22T20:26:05.855Z,15.43
2022-11-22T20:28:32.582Z,16.23
2022-11-22T20:31:10.679Z,10.98
2022-11-22T20:33:39.602Z,10.13
2022-11-22T20:36:14.719Z,12.48
2022-11-22T20:38:43.233Z,14.25
2022-11-22T20:41:11.898Z,11.02
2022-11-22T20:43:39.664Z,13.20
2022-11-22T20:46:10.353Z,14.18
2022-11-22T20:48:38.620Z,18.70
2022-11-22T20:51:07.935Z,13.02
2022-11-22T20:53:35.175Z,17.20
2022-11-22T20:56:02.365Z,18.77
2022-11-22T20:58:29.654Z,13.68
2022-11-22T21:00:57.175Z,14.32
2022-11-22T21:03:24.602Z,12.25
2022-11-22T21:05:53.660Z,10.98
2022-11-22T21:08:22.260Z,9.95
2022-11-22T21:10:49.325Z,8.27
2022-11-22T21:13:16.241Z,12.55
2022-11-22T21:15:43.025Z,16.00
2022-11-22T21:18:25.381Z,20.52
2022-11-22T21:20:52.693Z,17.10
2022-11-22T21:23:19.564Z,23.55
2022-11-22T21:25:46.681Z,16.15
2022-11-22T21:28:13.428Z,16.85
2022-11-22T21:30:40.181Z,21.35
2022-11-22T21:33:06.946Z,23.88
2022-11-22T21:35:33.689Z,25.10
2022-11-22T21:38:00.384Z,23.60
2022-11-22T21:40:27.137Z,17.27
2022-11-22T21:42:53.846Z,17.80
2022-11-22T21:45:20.569Z,15.68
2022-11-22T21:47:49.669Z,16.05
2022-11-22T21:50:16.805Z,18.88
2022-11-22T21:52:43.569Z,10.98
2022-11-22T21:55:11.530Z,15.35
2022-11-22T21:57:38.379Z,17.63
2022-11-22T22:00:05.899Z,16.27
2022-11-22T22:02:32.998Z,10.40
2022-11-22T22:04:59.864Z,18.90
2022-11-22T22:07:51.556Z,14.45
2022-11-22T22:10:14.775Z,9.13
2022-11-22T22:12:41.646Z,14.77
2022-11-22T22:15:14.896Z,6.80
2022-11-22T22:17:41.628Z,5.10
2022-11-22T22:20:08.729Z,10.45
2022-11-22T22:22:36.915Z,8.30
2022-11-22T22:25:07.272Z,12.55
2022-11-22T22:27:34.302Z,7.75
2022-11-22T22:30:01.012Z,11.52
2022-11-22T22:32:28.336Z,8.70
2022-11-22T22:34:55.141Z,10.82
2022-11-22T22:37:21.989Z,8.20
2022-11-22T22:39:51.528Z,10.40
2022-11-22T22:42:18.802Z,10.65
2022-11-22T22:44:45.911Z,7.53
2022-11-22T22:47:12.778Z,5.72
2022-11-22T22:49:39.604Z,9.20
2022-11-22T22:52:06.382Z,5.28
2022-11-22T22:54:33.127Z,6.35
2022-11-22T22:56:59.906Z,6.78
2022-11-22T22:59:26.706Z,9.40
2022-11-22T23:01:53.515Z,16.48
2022-11-22T23:04:20.406Z,8.38
2022-11-22T23:06:47.230Z,7.25
2022-11-22T23:09:16.727Z,8.40
2022-11-22T23:12:02.009Z,4.93
2022-11-22T23:14:30.178Z,9.63
2022-11-22T23:16:58.162Z,6.47
2022-11-22T23:19:26.302Z,10.10
2022-11-22T23:21:53.331Z,6.35
2022-11-22T23:24:25.489Z,8.38
2022-11-22T23:26:52.272Z,9.90
2022-11-22T23:29:19.082Z,8.45
2022-11-22T23:31:45.839Z,15.02
2022-11-22T23:34:12.665Z,10.43
2022-11-22T23:36:41.094Z,9.57
2022-11-22T23:39:08.542Z,14.05
2022-11-22T23:41:35.425Z,11.57
2022-11-22T23:44:02.472Z,9.27
2022-11-22T23:46:29.267Z,12.48
2022-11-22T23:48:58.009Z,8.18
2022-11-22T23:51:26.047Z,8.77
2022-11-22T23:53:57.489Z,9.48
2022-11-22T23:56:24.731Z,17.17
2022-11-22T23:58:52.211Z,9.27
